Aviation Digital Data Service (ADDS)

Output produced by METARs form (0949 UTC 26 January 2020)
found at http://www.aviationweather.gov/metar/data/
 
Forecast for: NGFU (FUNAFUTI TUVALU , FJ)
Text: TAF NGFU 260513Z 2606/2706 34010KT 9999 -SHRA SCT018 BKN100
Forecast period: 0600 UTC 26 January 2020 to 0600 UTC 27 January 2020
Forecast type: FROM: standard forecast or significant change
Winds: from the NNW (340 degrees) at 12 MPH (10 knots; 5.1 m/s)
Visibility: 6 or more miles 10+ km)
Ceiling: 10000 feet AGL
Clouds: scattered clouds at 1800 feet AGL
broken clouds at 10000 feet AGL
Weather: -SHRA  (light rain showers)
Text: TEMPO 2606/2612 3000 TSRA BKN015 FEW018CB
Forecast period: 0600 to 1200 UTC 26 January 2020
Forecast type: TEMPORARY: The following changes expected for less than half the time period
Visibility: 1.86 miles (2.99 km)
Ceiling: 1500 feet AGL
Clouds: broken clouds at 1500 feet AGL
few clouds at 1800 feet AGL
Weather: TSRA  (rain associated with thunderstorm(s))
Text: PROB40
Forecast period: 1200 UTC 26 January 2020 to 0000 UTC 27 January 2020
Forecast type: TEMPORARY: The following changes expected for less than half the time period
Visibility: 3 miles (5 km)
Ceiling: 1500 feet AGL
Clouds: broken clouds at 1500 feet AGL
few clouds at 1800 feet AGL
Weather: TSRA  (rain associated with thunderstorm(s))